Time;durP1;ratioP1;P1;durP2;ratioP2;P2;SDS_P1;SDS_P2;PMS_P1;PMS_P2;Temp;Humidity;BMP_temperature;BMP_pressure;BME280_temperature;BME280_humidity;BME280_pressure;Samples;Min_cycle;Max_cycle;Signal;HPM_P1;HPM_P2
2022/01/16 00:01:45;;;;;;;3.42;2.60;;;16.90;50.20;;;;;;5082694;28;20139;-54
2022/01/16 00:04:07;;;;;;;3.10;2.20;;;16.90;50.20;;;;;;5097302;28;20023;-55
2022/01/16 00:06:42;;;;;;;3.10;2.40;;;16.90;50.20;;;;;;5114205;28;20105;-55
2022/01/16 00:09:08;;;;;;;2.80;2.40;;;16.90;50.40;;;;;;5102822;28;20032;-54
2022/01/16 00:11:35;;;;;;;2.13;1.92;;;17.00;50.40;;;;;;5102681;28;20069;-56
2022/01/16 00:14:02;;;;;;;3.10;2.50;;;16.90;50.30;;;;;;5103392;28;20028;-52
2022/01/16 00:16:28;;;;;;;3.95;2.50;;;16.90;50.30;;;;;;5102935;28;20567;-52
2022/01/16 00:18:55;;;;;;;3.58;2.35;;;16.90;50.20;;;;;;5078528;28;20070;-56
2022/01/16 00:21:31;;;;;;;2.45;2.20;;;16.90;50.20;;;;;;5095370;28;20523;-55
2022/01/16 00:23:57;;;;;;;2.70;2.33;;;16.90;50.20;;;;;;5102954;28;20130;-54
2022/01/16 00:26:23;;;;;;;3.88;2.45;;;16.90;50.20;;;;;;5097371;28;20032;-52
2022/01/16 00:28:50;;;;;;;2.60;2.20;;;16.90;50.40;;;;;;5066398;28;20381;-57
2022/01/16 00:31:17;;;;;;;2.70;2.13;;;17.00;50.40;;;;;;5061026;28;20091;-57
2022/01/16 00:33:44;;;;;;;2.33;2.05;;;17.00;50.30;;;;;;5097353;28;20118;-55
2022/01/16 00:36:11;;;;;;;2.55;2.17;;;17.00;50.20;;;;;;5102637;28;20032;-55
2022/01/16 00:38:44;;;;;;;3.03;2.40;;;16.90;50.10;;;;;;5081490;28;20062;-55
2022/01/16 00:41:10;;;;;;;2.58;2.28;;;16.90;50.10;;;;;;5067873;28;20025;-56
2022/01/16 00:43:37;;;;;;;2.80;2.28;;;16.90;50.10;;;;;;5082476;28;20029;-55
2022/01/16 00:46:03;;;;;;;3.05;2.60;;;16.90;50.10;;;;;;5101115;28;20028;-56
2022/01/16 00:48:29;;;;;;;2.90;2.45;;;16.90;50.30;;;;;;5102234;28;20062;-56
2022/01/16 00:50:55;;;;;;;2.50;2.30;;;16.90;50.40;;;;;;5067869;28;20055;-55
2022/01/16 00:53:21;;;;;;;3.08;2.53;;;16.90;50.20;;;;;;5102801;28;20123;-56
2022/01/16 00:55:47;;;;;;;2.72;2.35;;;16.90;50.20;;;;;;5102544;28;20115;-59
2022/01/16 00:58:13;;;;;;;2.42;2.22;;;16.90;50.20;;;;;;5102451;28;20087;-56
2022/01/16 01:00:39;;;;;;;3.83;2.70;;;16.90;50.10;;;;;;5086291;28;20032;-54
2022/01/16 01:03:06;;;;;;;3.28;2.53;;;16.90;50.20;;;;;;5086018;28;20043;-56
2022/01/16 01:05:34;;;;;;;3.53;2.70;;;16.90;50.10;;;;;;5086083;28;20016;-55
2022/01/16 01:08:01;;;;;;;3.42;2.45;;;16.90;50.30;;;;;;5067821;28;20092;-57
2022/01/16 01:10:32;;;;;;;3.22;2.72;;;16.90;50.30;;;;;;5069616;28;20025;-54
2022/01/16 01:13:10;;;;;;;3.53;2.70;;;16.90;50.20;;;;;;5108638;28;20067;-55
2022/01/16 01:15:46;;;;;;;;;;;17.00;50.20;;;;;;5106897;28;20036;-53
2022/01/16 01:18:12;;;;;;;3.60;2.85;;;16.90;50.10;;;;;;5106160;28;19904;-55
2022/01/16 01:20:40;;;;;;;2.92;2.60;;;16.90;50.00;;;;;;5105741;28;20130;-55
2022/01/16 01:23:06;;;;;;;4.20;2.67;;;16.90;50.10;;;;;;5125224;28;20051;-54
2022/01/16 01:25:33;;;;;;;3.65;2.90;;;16.90;50.10;;;;;;5126313;28;20038;-56
2022/01/16 01:27:59;;;;;;;3.03;2.40;;;16.90;50.30;;;;;;5126580;28;20035;-53
2022/01/16 01:30:25;;;;;;;3.42;2.50;;;16.90;50.30;;;;;;5100344;28;20092;-52
2022/01/16 01:32:54;;;;;;;3.28;2.33;;;16.90;50.20;;;;;;5085379;28;20021;-55
2022/01/16 01:35:20;;;;;;;3.70;2.55;;;16.90;50.20;;;;;;5085478;28;20032;-56
2022/01/16 01:37:46;;;;;;;3.65;2.78;;;16.90;50.20;;;;;;5104864;28;20059;-53
2022/01/16 01:40:17;;;;;;;3.65;2.75;;;16.90;50.10;;;;;;5105513;28;20028;-56
2022/01/16 01:42:49;;;;;;;3.22;2.65;;;16.90;50.10;;;;;;5105529;28;20046;-53
2022/01/16 01:51:21;;;;;;;2.85;2.50;;;16.90;50.30;;;;;;5105152;28;20074;-56
2022/01/16 01:53:50;;;;;;;4.07;2.85;;;16.90;50.20;;;;;;5087330;28;20024;-57
2022/01/16 01:56:20;;;;;;;3.38;2.60;;;16.90;50.20;;;;;;5105170;28;20035;-55
2022/01/16 01:58:47;;;;;;;3.67;3.13;;;16.90;50.10;;;;;;5105384;28;20016;-58
2022/01/16 02:01:13;;;;;;;3.45;2.70;;;16.90;50.10;;;;;;5085719;28;20036;-57
2022/01/16 02:03:42;;;;;;;3.53;2.70;;;16.90;50.60;;;;;;5084694;28;20084;-57
2022/01/16 02:06:13;;;;;;;3.13;2.63;;;16.90;50.10;;;;;;5090868;28;20043;-59
2022/01/16 02:08:40;;;;;;;3.22;2.45;;;16.90;50.40;;;;;;5104835;28;20147;-58
2022/01/16 02:11:06;;;;;;;;;;;16.90;50.30;;;;;;5086534;28;20585;-56
2022/01/16 02:13:45;;;;;;;3.63;2.58;;;16.90;50.30;;;;;;5104972;28;19963;-57
2022/01/16 02:35:10;;;;;;;3.40;2.90;;;16.90;50.40;;;;;;5125180;28;20136;-58
2022/01/16 02:37:36;;;;;;;3.40;2.73;;;16.90;50.40;;;;;;5106456;28;20032;-57
2022/01/16 02:40:11;;;;;;;3.75;3.15;;;16.90;50.30;;;;;;5114295;28;20032;-59
2022/01/16 02:42:41;;;;;;;3.90;2.65;;;16.90;50.30;;;;;;5124631;28;20036;-59
2022/01/16 02:45:15;;;;;;;3.47;3.00;;;16.90;50.30;;;;;;5124932;28;20551;-58
2022/01/16 02:47:42;;;;;;;3.97;2.70;;;16.90;50.40;;;;;;5124799;28;20034;-59
2022/01/16 02:50:08;;;;;;;2.90;2.63;;;16.90;50.60;;;;;;5108522;28;20027;-58
2022/01/16 02:52:34;;;;;;;3.55;2.90;;;16.90;50.60;;;;;;5104100;28;20025;-59
2022/01/16 02:55:01;;;;;;;2.85;2.30;;;16.90;50.50;;;;;;5104142;28;20042;-57
2022/01/16 02:57:29;;;;;;;4.68;2.90;;;16.90;50.50;;;;;;5104046;28;20032;-57
2022/01/16 02:59:56;;;;;;;3.95;2.88;;;16.90;50.50;;;;;;5109846;28;20027;-58
2022/01/16 03:02:23;;;;;;;2.75;2.47;;;16.90;50.40;;;;;;5124258;28;20631;-58
2022/01/16 03:04:50;;;;;;;3.80;3.00;;;16.90;50.40;;;;;;5124667;28;20020;-59
2022/01/16 03:07:16;;;;;;;4.00;3.17;;;16.90;50.30;;;;;;5120714;28;20091;-58
2022/01/16 03:10:02;;;;;;;4.07;3.03;;;16.90;50.50;;;;;;5124423;28;20043;-61
2022/01/16 03:12:29;;;;;;;4.68;2.72;;;16.90;50.70;;;;;;5123746;28;20067;-58
2022/01/16 03:14:55;;;;;;;3.10;2.70;;;17.00;50.70;;;;;;5124336;28;20032;-59
2022/01/16 03:17:34;;;;;;;3.25;2.60;;;16.90;50.60;;;;;;5124199;28;20060;-59
2022/01/16 03:22:45;;;;;;;3.05;2.53;;;16.90;50.60;;;;;;5083037;28;20109;-58
2022/01/16 03:25:11;;;;;;;3.80;2.80;;;16.90;50.60;;;;;;5083822;28;20040;-58
2022/01/16 03:27:38;;;;;;;3.08;2.45;;;16.90;50.50;;;;;;5083224;28;20036;-59
2022/01/16 03:30:04;;;;;;;4.40;3.30;;;16.90;50.60;;;;;;5083208;28;20064;-60
2022/01/16 03:32:31;;;;;;;3.55;2.97;;;16.90;51.40;;;;;;5083300;28;20096;-59
2022/01/16 03:34:57;;;;;;;3.70;2.70;;;16.90;50.90;;;;;;5083040;28;20028;-59
2022/01/16 03:37:23;;;;;;;3.38;2.55;;;17.00;50.80;;;;;;5099221;28;20031;-60
2022/01/16 03:39:49;;;;;;;3.67;2.78;;;16.90;50.70;;;;;;5103426;28;20031;-61
2022/01/16 03:42:22;;;;;;;2.80;2.47;;;16.90;50.70;;;;;;5103358;28;20020;-60
2022/01/16 03:44:48;;;;;;;3.80;2.72;;;16.90;50.70;;;;;;5103160;28;20084;-60
2022/01/16 03:47:14;;;;;;;3.95;2.83;;;16.90;50.70;;;;;;5104446;28;20043;-60
2022/01/16 03:49:41;;;;;;;4.50;3.35;;;16.90;50.60;;;;;;5110641;28;20028;-60
2022/01/16 03:52:07;;;;;;;3.65;2.90;;;16.90;50.70;;;;;;5103196;28;20039;-59
2022/01/16 03:54:34;;;;;;;4.38;3.10;;;16.90;51.00;;;;;;5102896;28;20020;-60
2022/01/16 03:57:01;;;;;;;3.47;2.65;;;16.90;51.00;;;;;;5103069;28;20024;-60
2022/01/16 03:59:27;;;;;;;3.53;2.78;;;16.90;50.80;;;;;;5098072;28;20051;-61
2022/01/16 04:01:53;;;;;;;4.03;2.87;;;16.90;50.80;;;;;;5083075;28;20035;-61
2022/01/16 04:04:19;;;;;;;3.30;2.60;;;16.90;50.70;;;;;;5082466;28;20024;-61
2022/01/16 04:06:46;;;;;;;3.97;2.70;;;16.90;50.70;;;;;;5093783;28;20024;-61
2022/01/16 04:09:12;;;;;;;4.10;3.00;;;16.90;50.70;;;;;;5102836;28;20028;-61
2022/01/16 04:11:44;;;;;;;3.92;2.83;;;16.90;50.70;;;;;;5102700;28;20048;-62
2022/01/16 04:14:16;;;;;;;3.70;2.63;;;16.90;50.80;;;;;;5102573;28;20047;-61
2022/01/16 04:16:42;;;;;;;3.67;2.63;;;16.90;51.00;;;;;;5103003;28;20953;-60
2022/01/16 04:19:08;;;;;;;3.17;2.42;;;16.90;50.90;;;;;;5105595;28;20024;-61
2022/01/16 04:21:34;;;;;;;2.92;2.63;;;16.90;50.80;;;;;;5102745;28;20032;-60
2022/01/16 04:24:00;;;;;;;3.80;2.78;;;16.90;50.80;;;;;;5102581;28;20105;-60
2022/01/16 04:26:28;;;;;;;3.10;2.40;;;16.90;50.80;;;;;;5102559;28;20050;-60
2022/01/16 04:28:54;;;;;;;2.65;2.35;;;16.90;50.80;;;;;;5102450;28;20044;-62
2022/01/16 04:31:20;;;;;;;4.00;2.95;;;16.90;50.70;;;;;;5102151;28;20047;-61
2022/01/16 04:33:46;;;;;;;2.90;2.40;;;16.90;50.80;;;;;;5102475;28;20032;-59
2022/01/16 04:36:13;;;;;;;3.00;2.47;;;16.90;51.00;;;;;;5106728;28;20085;-60
2022/01/16 04:38:44;;;;;;;3.65;2.40;;;16.90;51.00;;;;;;5122465;28;20023;-60
2022/01/16 04:43:56;;;;;;;2.97;2.50;;;16.90;50.90;;;;;;5125486;28;20034;-60
2022/01/16 04:46:26;;;;;;;2.78;2.40;;;16.90;50.90;;;;;;5127191;28;20046;-60
2022/01/16 04:48:52;;;;;;;2.53;2.33;;;16.90;50.90;;;;;;5121484;28;20054;-61
2022/01/16 04:51:19;;;;;;;3.80;2.50;;;16.90;50.80;;;;;;5106670;28;20814;-60
2022/01/16 04:53:45;;;;;;;2.90;2.33;;;16.90;50.80;;;;;;5106243;28;20039;-59
2022/01/16 04:56:11;;;;;;;2.83;2.38;;;16.90;51.00;;;;;;5106004;28;20333;-60
2022/01/16 04:58:38;;;;;;;2.83;2.30;;;16.90;51.00;;;;;;5105206;28;20093;-60
2022/01/16 05:01:05;;;;;;;2.47;2.15;;;16.90;50.80;;;;;;5103692;28;20019;-61
2022/01/16 05:03:31;;;;;;;3.80;2.47;;;16.90;50.80;;;;;;5106387;28;20032;-60
2022/01/16 05:05:57;;;;;;;3.33;2.47;;;16.90;50.70;;;;;;5106110;28;20026;-60
2022/01/16 05:08:24;;;;;;;3.03;2.42;;;16.90;50.70;;;;;;5105850;28;20119;-59
2022/01/16 05:10:55;;;;;;;3.05;2.67;;;16.90;50.80;;;;;;5087847;28;20095;-61
2022/01/16 05:18:33;;;;;;;3.28;2.30;;;16.90;50.90;;;;;;5123492;28;20031;-62
2022/01/16 05:21:00;;;;;;;2.50;2.00;;;17.00;50.90;;;;;;5105967;28;20024;-62
2022/01/16 05:23:26;;;;;;;2.83;2.38;;;16.90;50.70;;;;;;5105861;28;20027;-63
2022/01/16 05:25:52;;;;;;;2.05;1.55;;;16.90;50.70;;;;;;5105424;28;20143;-62
2022/01/16 05:28:19;;;;;;;2.90;2.30;;;16.90;50.70;;;;;;5105704;28;20048;-60
2022/01/16 05:30:45;;;;;;;2.60;2.25;;;16.90;50.70;;;;;;5090146;28;20028;-60
2022/01/16 05:33:11;;;;;;;2.90;2.50;;;16.90;50.60;;;;;;5085427;28;20024;-61
2022/01/16 05:35:37;;;;;;;3.97;2.33;;;16.90;50.70;;;;;;5086546;28;20024;-61
2022/01/16 05:38:03;;;;;;;2.35;2.00;;;16.90;50.90;;;;;;5105723;28;20038;-60
2022/01/16 05:40:29;;;;;;;2.55;2.30;;;16.90;50.80;;;;;;5114454;28;20032;-61
2022/01/16 05:42:55;;;;;;;3.17;2.40;;;16.90;50.70;;;;;;5126018;28;20026;-61
2022/01/16 05:45:22;;;;;;;2.50;2.30;;;16.90;50.70;;;;;;5125549;28;20648;-61
2022/01/16 05:47:48;;;;;;;2.57;2.10;;;16.90;50.60;;;;;;5125151;28;20028;-62
2022/01/16 05:50:14;;;;;;;2.67;2.25;;;16.90;50.60;;;;;;5100287;28;20277;-62
2022/01/16 05:52:41;;;;;;;3.10;2.33;;;16.90;50.60;;;;;;5105331;28;20031;-62
2022/01/16 05:55:07;;;;;;;2.43;2.13;;;16.90;50.70;;;;;;5105532;28;20028;-61
2022/01/16 05:57:33;;;;;;;2.60;2.10;;;16.90;50.80;;;;;;5104986;28;20042;-61
2022/01/16 05:59:59;;;;;;;3.13;2.00;;;16.90;50.80;;;;;;5095523;28;20035;-61
2022/01/16 06:02:26;;;;;;;3.30;2.30;;;16.90;50.70;;;;;;5084877;28;20021;-61
2022/01/16 06:04:52;;;;;;;2.50;2.10;;;16.90;50.60;;;;;;5084802;28;20059;-61
2022/01/16 06:07:19;;;;;;;2.28;2.08;;;16.90;50.60;;;;;;5100269;28;20036;-61
2022/01/16 06:09:45;;;;;;;2.97;2.17;;;16.90;50.70;;;;;;5104850;28;20476;-60
2022/01/16 06:12:11;;;;;;;2.75;2.17;;;16.80;50.50;;;;;;5104602;28;20056;-60
2022/01/16 06:14:37;;;;;;;4.10;2.45;;;16.90;50.70;;;;;;5104913;28;20544;-63
2022/01/16 06:17:04;;;;;;;4.18;2.55;;;16.90;50.80;;;;;;5104595;28;20036;-61
2022/01/16 06:19:30;;;;;;;2.22;2.03;;;16.90;50.70;;;;;;5107811;28;20080;-62
2022/01/16 06:21:56;;;;;;;2.10;1.90;;;16.90;50.60;;;;;;5105827;28;20064;-62
2022/01/16 06:24:22;;;;;;;2.70;2.15;;;16.90;50.60;;;;;;5105000;28;20024;-62
2022/01/16 06:26:51;;;;;;;2.25;2.00;;;16.90;50.60;;;;;;5104251;28;20051;-61
2022/01/16 06:29:19;;;;;;;2.65;2.20;;;16.90;50.60;;;;;;5107603;28;20043;-62
2022/01/16 06:31:45;;;;;;;3.22;2.42;;;16.80;50.50;;;;;;5084287;28;20024;-61
2022/01/16 06:34:11;;;;;;;2.47;2.08;;;16.80;50.60;;;;;;5084212;28;20481;-61
2022/01/16 06:36:38;;;;;;;2.72;2.17;;;16.90;50.80;;;;;;5093846;28;20115;-60
2022/01/16 06:39:05;;;;;;;2.58;2.00;;;16.90;50.70;;;;;;5104334;28;20056;-60
2022/01/16 06:41:32;;;;;;;2.80;1.88;;;16.90;50.60;;;;;;5104481;28;20107;-60
2022/01/16 06:43:58;;;;;;;2.42;2.15;;;16.90;50.60;;;;;;5104299;28;20046;-60
2022/01/16 06:46:24;;;;;;;2.05;1.85;;;16.90;50.60;;;;;;5104227;28;20024;-60
2022/01/16 06:48:50;;;;;;;2.20;2.00;;;16.80;50.50;;;;;;5099175;28;20474;-59
2022/01/16 06:51:21;;;;;;;2.60;2.13;;;16.80;50.50;;;;;;5103595;28;20024;-60
2022/01/16 06:53:47;;;;;;;2.33;2.00;;;16.90;50.80;;;;;;5104017;28;20032;-60
2022/01/16 06:56:14;;;;;;;2.33;2.08;;;16.90;50.80;;;;;;5103821;28;20063;-60
2022/01/16 06:58:40;;;;;;;1.77;1.60;;;16.90;50.60;;;;;;5103849;28;20032;-59
2022/01/16 07:01:07;;;;;;;2.38;2.03;;;16.90;50.60;;;;;;5085658;28;20047;-59
2022/01/16 07:03:33;;;;;;;2.40;1.92;;;16.90;50.60;;;;;;5083720;28;20020;-61
2022/01/16 07:06:00;;;;;;;2.28;1.90;;;16.80;50.50;;;;;;5088141;28;20118;-60
2022/01/16 07:08:26;;;;;;;;;;;16.80;50.50;;;;;;5107300;28;20024;-61
2022/01/16 07:10:56;;;;;;;2.10;1.90;;;16.80;50.50;;;;;;5122634;28;19931;-61
2022/01/16 07:13:26;;;;;;;2.22;1.98;;;16.90;50.70;;;;;;5124231;28;20039;-61
2022/01/16 07:15:52;;;;;;;2.03;1.80;;;16.90;50.70;;;;;;5124098;28;20127;-61
2022/01/16 07:18:19;;;;;;;2.58;2.10;;;16.90;50.50;;;;;;5123095;28;20039;-61
2022/01/16 07:20:45;;;;;;;1.80;1.70;;;16.90;50.50;;;;;;5100162;28;20040;-60
2022/01/16 07:23:12;;;;;;;3.15;2.13;;;16.90;50.50;;;;;;5103046;28;20028;-59
2022/01/16 07:25:39;;;;;;;2.65;1.90;;;16.90;50.40;;;;;;5103340;28;20028;-60
2022/01/16 07:28:05;;;;;;;2.75;1.92;;;16.90;50.40;;;;;;5103011;28;20096;-60
2022/01/16 07:30:31;;;;;;;2.80;2.20;;;16.80;50.40;;;;;;5072926;28;20468;-59
2022/01/16 07:32:57;;;;;;;1.77;1.65;;;16.90;50.60;;;;;;5083207;28;20028;-60
2022/01/16 07:35:23;;;;;;;2.00;1.80;;;16.90;50.50;;;;;;5083188;28;20017;-60
2022/01/16 07:37:51;;;;;;;2.13;1.60;;;16.90;50.50;;;;;;5102738;28;20092;-62
2022/01/16 07:40:18;;;;;;;2.10;1.90;;;16.90;50.30;;;;;;5103130;28;20063;-61
2022/01/16 07:42:45;;;;;;;2.63;2.10;;;16.90;50.30;;;;;;5103283;28;20384;-61
2022/01/16 07:45:11;;;;;;;1.83;1.60;;;16.80;50.20;;;;;;5103153;28;20024;-62
2022/01/16 07:47:37;;;;;;;2.00;1.67;;;16.80;50.30;;;;;;5105669;28;20036;-63
2022/01/16 07:50:04;;;;;;;2.00;1.80;;;16.80;50.40;;;;;;5103039;28;20293;-62
2022/01/16 07:52:30;;;;;;;2.30;1.90;;;16.90;50.50;;;;;;5103252;28;20020;-63
2022/01/16 07:54:56;;;;;;;2.05;1.80;;;16.90;50.30;;;;;;5102680;28;20036;-62
2022/01/16 07:57:22;;;;;;;2.42;1.83;;;16.90;50.30;;;;;;5102857;28;20054;-62
2022/01/16 07:59:50;;;;;;;1.83;1.65;;;16.90;50.30;;;;;;5095108;28;20028;-62
2022/01/16 08:02:17;;;;;;;1.92;1.75;;;16.80;50.20;;;;;;5082848;28;20039;-62
2022/01/16 08:04:43;;;;;;;2.30;1.80;;;16.80;50.20;;;;;;5082736;28;20607;-61
2022/01/16 08:07:10;;;;;;;2.00;1.80;;;16.80;50.30;;;;;;5096634;28;20058;-61
2022/01/16 08:09:39;;;;;;;2.00;1.70;;;16.80;50.50;;;;;;5102184;28;20099;-61
2022/01/16 08:12:06;;;;;;;1.80;1.40;;;16.90;50.40;;;;;;5102728;28;20047;-61
2022/01/16 08:14:32;;;;;;;1.90;1.50;;;16.80;50.30;;;;;;5103124;28;20137;-61
2022/01/16 08:17:00;;;;;;;1.85;1.60;;;16.80;50.30;;;;;;5102971;28;20053;-61
2022/01/16 08:19:27;;;;;;;2.30;1.70;;;16.80;50.30;;;;;;5102205;28;20039;-60
2022/01/16 08:21:53;;;;;;;2.00;1.75;;;16.90;50.30;;;;;;5108783;28;20087;-61
2022/01/16 08:24:19;;;;;;;1.60;1.40;;;16.80;50.20;;;;;;5104302;28;20493;-62
2022/01/16 08:26:45;;;;;;;1.95;1.70;;;16.80;50.30;;;;;;5120488;28;20042;-62
2022/01/16 08:29:12;;;;;;;1.55;1.40;;;16.80;50.40;;;;;;5118773;28;20043;-62
2022/01/16 08:31:38;;;;;;;1.77;1.60;;;16.90;50.30;;;;;;5102651;28;20115;-60
2022/01/16 08:34:04;;;;;;;1.85;1.60;;;16.90;50.30;;;;;;5102631;28;20055;-60
2022/01/16 08:36:30;;;;;;;2.25;1.77;;;16.80;50.20;;;;;;5102785;28;20032;-60
2022/01/16 08:38:56;;;;;;;1.75;1.45;;;16.80;50.10;;;;;;5102397;28;20055;-60
2022/01/16 08:41:23;;;;;;;1.80;1.38;;;16.80;50.10;;;;;;5102520;28;20050;-61
2022/01/16 08:43:49;;;;;;;1.30;1.20;;;16.80;50.10;;;;;;5102643;28;20020;-61
2022/01/16 08:46:15;;;;;;;1.75;1.60;;;16.80;50.30;;;;;;5102556;28;20032;-61
2022/01/16 08:48:41;;;;;;;1.85;1.10;;;16.90;50.30;;;;;;5098228;28;20037;-61
2022/01/16 08:51:08;;;;;;;1.40;1.10;;;16.90;50.20;;;;;;5101625;28;20024;-60
2022/01/16 08:53:34;;;;;;;2.15;1.48;;;16.80;50.10;;;;;;5102578;28;20485;-61
2022/01/16 08:56:00;;;;;;;1.38;1.20;;;16.80;50.10;;;;;;5102356;28;20016;-60
2022/01/16 08:58:27;;;;;;;1.38;1.20;;;16.80;50.10;;;;;;5103114;28;20105;-60
2022/01/16 09:00:53;;;;;;;1.30;1.20;;;16.80;50.10;;;;;;5088718;28;20036;-61
2022/01/16 09:03:20;;;;;;;1.40;1.30;;;16.80;50.30;;;;;;5082328;28;20432;-61
2022/01/16 09:05:46;;;;;;;0.80;0.77;;;16.80;50.30;;;;;;5084836;28;20111;-61
2022/01/16 09:08:13;;;;;;;1.30;1.20;;;16.80;50.10;;;;;;5102077;28;20085;-61
2022/01/16 09:10:41;;;;;;;1.20;1.10;;;16.80;50.00;;;;;;5101889;28;20060;-60
2022/01/16 09:13:11;;;;;;;1.38;1.27;;;16.80;50.00;;;;;;5101489;28;20023;-61
2022/01/16 09:15:38;;;;;;;1.58;1.30;;;16.80;50.00;;;;;;5102416;28;20053;-61
2022/01/16 09:18:05;;;;;;;1.63;1.30;;;16.80;49.90;;;;;;5102612;28;20032;-61
2022/01/16 09:20:31;;;;;;;1.58;1.40;;;16.80;50.00;;;;;;5101469;28;20028;-59
2022/01/16 09:22:57;;;;;;;1.10;1.00;;;16.80;50.10;;;;;;5103439;28;20091;-59
2022/01/16 09:25:23;;;;;;;1.20;1.10;;;16.80;50.00;;;;;;5105776;28;20207;-61
2022/01/16 09:27:50;;;;;;;1.50;1.10;;;16.80;50.00;;;;;;5105719;28;20028;-59
2022/01/16 09:30:16;;;;;;;1.77;1.20;;;16.80;50.00;;;;;;5086148;28;20044;-60
2022/01/16 09:32:43;;;;;;;1.10;1.00;;;16.80;50.50;;;;;;5085507;28;20071;-60
2022/01/16 09:35:09;;;;;;;1.35;1.20;;;16.70;49.80;;;;;;5085471;28;20048;-60
2022/01/16 09:37:36;;;;;;;1.30;1.20;;;16.80;50.00;;;;;;5103366;28;20028;-59
2022/01/16 09:40:03;;;;;;;1.03;0.90;;;16.90;50.10;;;;;;5105215;28;20022;-60
2022/01/16 09:42:29;;;;;;;;;;;16.80;50.00;;;;;;5087913;28;20267;-59
2022/01/16 09:44:55;;;;;;;0.80;0.80;;;16.80;49.90;;;;;;5105541;28;19995;-61
2022/01/16 09:47:21;;;;;;;1.58;1.23;;;16.80;49.90;;;;;;5081770;28;20039;-61
2022/01/16 09:49:48;;;;;;;0.90;0.90;;;16.80;49.80;;;;;;5104966;28;20042;-60
2022/01/16 09:52:14;;;;;;;0.95;0.85;;;16.80;49.80;;;;;;5105428;28;20048;-62
2022/01/16 09:54:40;;;;;;;1.00;0.90;;;16.80;50.00;;;;;;5105246;28;20028;-62
2022/01/16 09:57:06;;;;;;;0.98;0.82;;;16.80;50.10;;;;;;5105180;28;20030;-62
2022/01/16 09:59:33;;;;;;;1.00;0.85;;;16.80;49.90;;;;;;5097521;28;20088;-63
2022/01/16 10:01:59;;;;;;;1.15;0.88;;;16.80;50.40;;;;;;5103103;28;20024;-62
2022/01/16 10:04:30;;;;;;;0.88;0.80;;;16.80;49.80;;;;;;5105229;28;20028;-63
2022/01/16 10:06:57;;;;;;;1.00;0.90;;;16.80;49.70;;;;;;5104677;28;20035;-62
2022/01/16 10:09:23;;;;;;;1.20;1.10;;;16.80;49.80;;;;;;5104979;28;20091;-60
2022/01/16 10:12:02;;;;;;;1.15;0.80;;;16.70;49.80;;;;;;5101112;28;20059;-61
2022/01/16 10:14:37;;;;;;;1.10;0.70;;;16.80;50.00;;;;;;5104853;28;20070;-62
2022/01/16 10:17:10;;;;;;;1.00;0.73;;;16.80;49.80;;;;;;5104735;28;20028;-61
2022/01/16 10:19:37;;;;;;;0.65;0.65;;;16.80;49.70;;;;;;5107870;28;20028;-61
2022/01/16 10:22:09;;;;;;;0.82;0.73;;;16.80;49.70;;;;;;5103518;28;20027;-60
2022/01/16 10:24:35;;;;;;;1.35;0.88;;;16.80;49.60;;;;;;5125295;28;20088;-61
2022/01/16 10:27:14;;;;;;;0.80;0.70;;;16.70;49.60;;;;;;5124756;28;20499;-61
2022/01/16 10:29:53;;;;;;;1.15;0.88;;;16.80;49.70;;;;;;5114292;28;20039;-60
2022/01/16 10:32:33;;;;;;;0.70;0.70;;;16.80;49.80;;;;;;5084102;28;20025;-60
2022/01/16 10:35:10;;;;;;;1.05;0.60;;;16.80;49.80;;;;;;5084174;28;20021;-60
2022/01/16 10:37:37;;;;;;;0.52;0.50;;;16.80;49.70;;;;;;5102072;28;20767;-58
2022/01/16 10:40:09;;;;;;;0.70;0.55;;;16.80;49.70;;;;;;5104188;28;20050;-59
2022/01/16 10:42:36;;;;;;;0.50;0.50;;;16.80;49.60;;;;;;5104234;28;20069;-59
2022/01/16 10:45:08;;;;;;;0.55;0.55;;;16.70;49.60;;;;;;5104345;28;20024;-59
2022/01/16 10:47:35;;;;;;;1.13;0.75;;;16.80;49.70;;;;;;5104116;28;20115;-60
2022/01/16 10:50:10;;;;;;;0.60;0.60;;;16.80;49.80;;;;;;5103931;28;20055;-59
2022/01/16 10:52:51;;;;;;;0.60;0.60;;;16.80;49.60;;;;;;5104169;28;20058;-59
2022/01/16 10:55:18;;;;;;;0.70;0.60;;;16.80;49.50;;;;;;5104165;28;20039;-60
2022/01/16 10:57:45;;;;;;;0.47;0.43;;;16.80;49.50;;;;;;5103692;28;20046;-61
2022/01/16 11:00:18;;;;;;;0.60;0.50;;;16.70;49.50;;;;;;5103297;28;20060;-59
2022/01/16 11:02:49;;;;;;;0.80;0.60;;;16.70;49.60;;;;;;5103429;28;20032;-61
2022/01/16 11:05:22;;;;;;;0.45;0.45;;;16.80;49.70;;;;;;5103678;28;20121;-60
2022/01/16 11:07:57;;;;;;;0.40;0.40;;;16.80;49.60;;;;;;5105907;28;20027;-60
2022/01/16 11:10:26;;;;;;;0.50;0.40;;;16.80;49.50;;;;;;5103990;28;20071;-60
2022/01/16 11:12:54;;;;;;;0.30;0.30;;;16.80;49.50;;;;;;5103767;28;20058;-59
2022/01/16 11:15:19;;;;;;;;;;;16.80;49.40;;;;;;5104340;28;20039;-60
2022/01/16 11:17:46;;;;;;;0.73;0.57;;;16.80;49.40;;;;;;5103656;28;19955;-59
2022/01/16 11:20:13;;;;;;;0.80;0.75;;;16.80;49.50;;;;;;5085456;28;20457;-59
2022/01/16 11:23:30;;;;;;;0.50;0.40;;;16.80;49.60;;;;;;5085486;28;20032;-59
2022/01/16 11:25:36;;;;;;;0.50;0.30;;;16.80;49.60;;;;;;5092289;28;20044;-59
2022/01/16 11:28:16;;;;;;;0.40;0.40;;;16.80;49.40;;;;;;5086321;28;20020;-58
2022/01/16 11:30:45;;;;;;;0.43;0.40;;;16.80;49.40;;;;;;5089296;28;20036;-59
2022/01/16 11:33:11;;;;;;;0.40;0.40;;;16.80;49.30;;;;;;5083101;28;20058;-59
2022/01/16 11:35:43;;;;;;;0.82;0.40;;;16.70;49.20;;;;;;5084643;28;20025;-58
2022/01/16 11:38:09;;;;;;;0.38;0.30;;;16.70;49.30;;;;;;5084859;28;20088;-58
2022/01/16 11:40:44;;;;;;;0.45;0.40;;;16.80;49.40;;;;;;5103194;28;20035;-58
2022/01/16 11:43:20;;;;;;;0.60;0.28;;;16.80;49.40;;;;;;5111927;28;20031;-60
2022/01/16 11:46:04;;;;;;;0.38;0.38;;;16.80;49.30;;;;;;5123208;28;20062;-60
2022/01/16 11:48:34;;;;;;;0.30;0.30;;;16.80;49.20;;;;;;5120962;28;20019;-60
2022/01/16 11:51:19;;;;;;;0.52;0.40;;;16.70;49.10;;;;;;5103237;28;20040;-59
2022/01/16 11:54:07;;;;;;;0.38;0.30;;;16.70;49.10;;;;;;5101828;28;20028;-57
2022/01/16 11:56:39;;;;;;;0.30;0.20;;;16.70;49.20;;;;;;5102875;28;20058;-60
2022/01/16 11:59:12;;;;;;;0.60;0.38;;;16.80;49.30;;;;;;5103010;28;20024;-59
2022/01/16 12:01:45;;;;;;;0.30;0.30;;;16.80;49.30;;;;;;5082999;28;20047;-58
2022/01/16 12:04:48;;;;;;;0.43;0.40;;;16.80;49.30;;;;;;5105125;28;20388;-59
2022/01/16 12:07:15;;;;;;;2.05;0.30;;;16.80;49.10;;;;;;5045069;28;20537;-60
2022/01/16 12:12:16;;;;;;;0.47;0.30;;;16.80;49.20;;;;;;5039775;28;20045;-60
2022/01/16 12:15:01;;;;;;;0.20;0.20;;;16.80;49.20;;;;;;5039857;28;20049;-59
2022/01/16 12:20:18;;;;;;;0.35;0.28;;;16.80;49.20;;;;;;5020919;28;20026;-59
2022/01/16 12:23:04;;;;;;;0.30;0.30;;;16.80;49.10;;;;;;5020181;28;20543;-59
2022/01/16 12:25:53;;;;;;;0.30;0.30;;;16.80;49.10;;;;;;5039115;28;20052;-59
2022/01/16 12:28:24;;;;;;;0.32;0.28;;;16.70;48.90;;;;;;5024056;28;20103;-59
2022/01/16 12:31:02;;;;;;;0.30;0.25;;;16.80;49.10;;;;;;5041266;28;20033;-60
2022/01/16 12:33:50;;;;;;;0.20;0.20;;;16.80;49.10;;;;;;5039976;28;20435;-60
2022/01/16 12:36:37;;;;;;;0.30;0.20;;;16.80;49.00;;;;;;5039730;28;20148;-59
2022/01/16 12:39:11;;;;;;;0.20;0.20;;;16.80;48.90;;;;;;4980606;28;20035;-59
2022/01/16 12:41:43;;;;;;;0.20;0.20;;;16.80;48.90;;;;;;5012856;28;20037;-58
2022/01/16 12:44:11;;;;;;;0.25;0.20;;;16.70;48.90;;;;;;5039757;28;20041;-60
2022/01/16 12:46:42;;;;;;;0.20;0.20;;;16.70;48.90;;;;;;5039229;28;20132;-61
2022/01/16 12:49:15;;;;;;;0.15;0.15;;;16.80;49.00;;;;;;5038994;28;20044;-59
2022/01/16 12:51:42;;;;;;;0.15;0.13;;;16.80;48.90;;;;;;5039536;28;20033;-57
2022/01/16 12:54:09;;;;;;;;;;;16.80;48.90;;;;;;5040124;28;20108;-58
2022/01/16 12:56:40;;;;;;;0.35;0.35;;;16.80;48.80;;;;;;5042548;28;19905;-61
2022/01/16 12:59:09;;;;;;;0.20;0.20;;;16.70;48.70;;;;;;5042695;28;20844;-60
2022/01/16 13:01:36;;;;;;;0.20;0.20;;;16.70;48.70;;;;;;5043597;28;20076;-59
2022/01/16 13:04:02;;;;;;;0.20;0.20;;;16.70;48.80;;;;;;5043373;28;20087;-59
2022/01/16 13:06:29;;;;;;;0.20;0.20;;;16.70;48.90;;;;;;5043394;28;20021;-59
2022/01/16 13:09:00;;;;;;;0.10;0.10;;;16.80;48.90;;;;;;5042858;28;20104;-59
2022/01/16 13:11:31;;;;;;;0.20;0.20;;;16.80;48.80;;;;;;5044096;28;20045;-59
2022/01/16 13:13:57;;;;;;;0.20;0.20;;;16.80;48.80;;;;;;5045334;28;20048;-59
2022/01/16 13:16:47;;;;;;;0.20;0.20;;;16.70;48.60;;;;;;5099784;28;20036;-57
2022/01/16 13:19:23;;;;;;;0.20;0.20;;;16.70;48.70;;;;;;5089266;28;20036;-58
2022/01/16 13:22:05;;;;;;;0.25;0.20;;;16.70;48.80;;;;;;5106013;28;20028;-59
2022/01/16 13:24:47;;;;;;;0.65;0.15;;;16.80;48.80;;;;;;5105980;28;20032;-58
2022/01/16 13:27:18;;;;;;;0.20;0.20;;;16.80;48.70;;;;;;5087796;28;20042;-59
2022/01/16 13:29:46;;;;;;;0.25;0.20;;;16.70;48.60;;;;;;5093712;28;20497;-59
2022/01/16 13:32:17;;;;;;;0.10;0.10;;;16.70;48.50;;;;;;5067709;28;20028;-60
2022/01/16 13:34:53;;;;;;;1.92;0.22;;;16.70;48.60;;;;;;5067396;28;20028;-60
2022/01/16 13:37:26;;;;;;;0.10;0.10;;;16.70;48.70;;;;;;5099791;28;20101;-60